Flight Track Log - Related Links

Times and Time Zones

All times are in EDT time to prevent confusion due to time zone crossing. See the N960DL flight status page for this flight to view local times or setup timezone preferences in your user account.

Time Position Orientation Groundspeed Altitude Reporting Facility
EDT Latitude Longitude Course Direction KTS MPH feet Rate Location/Type
Sun 07:07:41 PM 33.6478 -84.3733 234° Southwest 441 507 2,400  Level Atlanta Center
Sun 07:08:03 PM 33.6500 -84.3500 83° East 214 246 3,200 2,488 Climbing Atlanta TRACON
Sun 07:09:03 PM 33.7000 -84.2833 48° Northeast 266 306 5,800 2,750 Climbing Atlanta TRACON
Sun 07:10:00 PM 33.8001 -84.4521 270° West  Level FlightAware Approximate
Sun 07:10:03 PM 33.7667 -84.2833 360° North 278 320 8,700  Level Atlanta TRACON
Sun 07:11:00 PM 33.7954 -84.5759 239° Southwest  Level FlightAware Approximate
Sun 07:11:41 PM 33.8103 -84.4139 292° West 273 314 11,400  Level Atlanta Center
Sun 07:12:00 PM 33.7353 -84.6782 234° Southwest  Level FlightAware Approximate
Sun 07:12:41 PM 33.8122 -84.5189 271° West 307 353 13,300  Level Atlanta Center
Sun 07:13:00 PM 33.6733 -84.7789 234° Southwest  Level FlightAware Approximate
Sun 07:13:41 PM 33.7781 -84.6411 251° West 339 390 16,300  Level Atlanta Center
Sun 07:14:41 PM 33.7131 -84.7356 230° Southwest 349 402 18,100 1,950 Climbing Atlanta Center
Sun 07:15:41 PM 33.6519 -84.8375 234° Southwest 373 429 20,200 1,950 Climbing Atlanta Center
Sun 07:16:41 PM 33.6072 -84.9567 246° West 387 445 22,000 1,900 Climbing Atlanta Center
Sun 07:17:41 PM 33.5644 -85.0783 247° West 393 452 24,000 1,900 Climbing Atlanta Center
Sun 07:18:41 PM 33.5217 -85.1950 246° West 393 452 25,800 1,800 Climbing Atlanta Center
Sun 07:19:41 PM 33.4953 -85.3217 256° West 393 452 27,600 1,900 Climbing Atlanta Center
Sun 07:20:41 PM 33.4647 -85.4408 253° West 385 443 29,600 1,450 Climbing Atlanta Center
Sun 07:21:41 PM 33.4322 -85.5547 251° West 367 422 30,500 1,000 Climbing Atlanta Center
Sun 07:22:41 PM 33.3953 -85.6711 249° West 367 422 31,600 850 Climbing Atlanta Center
Sun 07:23:41 PM 33.3603 -85.7872 250° West 367 422 32,200 750 Climbing Atlanta Center
Sun 07:24:41 PM 33.3297 -85.8836 249° West 367 422 33,100 700 Climbing Atlanta Center
Sun 07:25:41 PM 33.2944 -85.9972 250° West 367 422 33,600 450 Climbing Atlanta Center
Sun 07:26:41 PM 33.2594 -86.1008 248° West 361 415 34,000 200 Climbing Atlanta Center
Sun 07:27:41 PM 33.2239 -86.2242 251° West 383 441 34,000  Level Atlanta Center
Sun 07:28:41 PM 33.1883 -86.3397 250° West 383 441 34,000  Level Atlanta Center
Sun 07:29:41 PM 33.1528 -86.4531 249° West 377 434 34,000  Level Atlanta Center
Sun 07:30:41 PM 33.1128 -86.5783 249° West 383 441 34,000  Level Atlanta Center
Sun 07:31:41 PM 33.0725 -86.6986 248° West 383 441 34,000  Level Atlanta Center
Sun 07:32:41 PM 33.0367 -86.8164 250° West 389 448 34,000  Level Atlanta Center
Sun 07:33:41 PM 32.9983 -86.9317 248° West 384 442 34,000  Level Atlanta Center
Sun 07:34:41 PM 32.9625 -87.0444 249° West 379 436 34,000  Level Atlanta Center
Sun 07:35:41 PM 32.9239 -87.1644 249° West 379 436 34,000  Level Atlanta Center
Sun 07:37:46 PM 32.8475 -87.3925 248° West 377 434 34,000  Level Memphis Center
Sun 07:38:46 PM 32.8103 -87.5072 249° West 377 434 34,000  Level Memphis Center
Sun 07:39:46 PM 32.7714 -87.6247 249° West 377 434 34,000  Level Memphis Center
Sun 07:40:46 PM 32.7342 -87.7394 249° West 377 434 34,000  Level Memphis Center
Sun 07:41:46 PM 32.6928 -87.8692 249° West 383 441 34,000  Level Memphis Center
Sun 07:42:46 PM 32.6575 -87.9836 250° West 378 435 34,000  Level Memphis Center
Sun 07:43:46 PM 32.6158 -88.0981 247° West 373 429 34,000  Level Memphis Center
Sun 07:44:46 PM 32.5822 -88.2100 250° West 373 429 34,000  Level Memphis Center
Sun 07:45:46 PM 32.5444 -88.3192 248° West 373 429 34,000  Level Memphis Center
Sun 07:46:46 PM 32.5047 -88.4333 248° West 373 429 34,000  Level Memphis Center
Sun 07:47:46 PM 32.4647 -88.5500 248° West 373 429 34,000  Level Memphis Center
Sun 07:48:46 PM 32.4267 -88.6639 248° West 373 429 34,000  Level Memphis Center
Sun 07:49:46 PM 32.3883 -88.7731 247° West 373 429 34,000  Level Memphis Center
Sun 07:50:46 PM 32.3833 -88.8886 267° West 357 411 34,000  Level Memphis Center
Sun 07:51:46 PM 32.3953 -89.0092 277° West 362 417 34,000  Level Memphis Center
Sun 07:52:46 PM 32.4089 -89.1244 278° West 362 417 34,000  Level Memphis Center
Sun 07:53:46 PM 32.4183 -89.2400 276° West 362 417 34,000  Level Memphis Center
Sun 07:54:46 PM 32.4300 -89.3556 277° West 367 422 34,000  Level Memphis Center
Sun 07:55:46 PM 32.4411 -89.4736 276° West 367 422 34,000  Level Memphis Center
Sun 07:56:46 PM 32.4503 -89.5892 275° West 361 415 34,000  Level Memphis Center
Sun 07:57:46 PM 32.4636 -89.7022 278° West 361 415 34,000  Level Memphis Center
Sun 07:58:46 PM 32.4725 -89.8181 275° West 361 415 34,000  Level Memphis Center
Sun 07:59:46 PM 32.4833 -89.9336 276° West 361 415 34,000  Level Memphis Center
Sun 08:00:46 PM 32.4961 -90.0494 277° West 361 415 34,000  Level Memphis Center
Sun 08:01:46 PM 32.5047 -90.1653 275° West 361 415 34,000  Level Memphis Center
Sun 08:02:46 PM 32.5069 -90.2808 271° West 361 415 34,000  Level Memphis Center
Sun 08:03:46 PM 32.5092 -90.3967 271° West 361 415 34,000  Level Memphis Center
Sun 08:04:46 PM 32.5089 -90.5125 270° West 361 415 34,000  Level Memphis Center
Sun 08:05:46 PM 32.5089 -90.6258 270° West 356 410 34,000  Level Memphis Center
Sun 08:06:46 PM 32.5106 -90.7417 271° West 356 410 34,000  Level Memphis Center
Sun 08:07:46 PM 32.5122 -90.8600 271° West 356 410 34,000  Level Memphis Center
Sun 08:08:46 PM 32.5139 -90.9756 271° West 356 410 34,000  Level Memphis Center
Sun 08:09:46 PM 32.5153 -91.0914 271° West 356 410 34,000  Level Memphis Center
Sun 08:12:06 PM 32.5181 -91.3508 271° West 349 402 34,000  Level Fort Worth Center
Sun 08:13:06 PM 32.5197 -91.4689 271° West 349 402 34,000  Level Fort Worth Center
Sun 08:14:06 PM 32.5197 -91.6019 270° West 355 409 34,000  Level Fort Worth Center
Sun 08:15:06 PM 32.5208 -91.7178 271° West 360 414 34,000  Level Fort Worth Center
Sun 08:16:06 PM 32.5197 -91.8336 269° West 360 414 34,000  Level Fort Worth Center
Sun 08:17:06 PM 32.5208 -91.9517 271° West 360 414 34,000  Level Fort Worth Center
Sun 08:18:06 PM 32.5194 -92.0700 269° West 365 420 34,000  Level Fort Worth Center
Sun 08:19:06 PM 32.5139 -92.1836 267° West 365 420 34,000  Level Fort Worth Center
Sun 08:20:06 PM 32.5042 -92.3022 264° West 365 420 34,000  Level Fort Worth Center
Sun 08:21:06 PM 32.4942 -92.4186 264° West 365 420 34,000  Level Fort Worth Center
Sun 08:22:06 PM 32.4903 -92.5297 268° West 365 420 34,000  Level Fort Worth Center
Sun 08:23:06 PM 32.4781 -92.6461 263° West 360 414 34,000  Level Fort Worth Center
Sun 08:24:06 PM 32.4700 -92.7647 265° West 360 414 34,000  Level Fort Worth Center
Sun 08:25:06 PM 32.4594 -92.8808 264° West 360 414 34,000  Level Fort Worth Center
Sun 08:26:06 PM 32.4492 -92.9969 264° West 360 414 34,000  Level Fort Worth Center
Sun 08:27:06 PM 32.4406 -93.1156 265° West 360 414 34,000  Level Fort Worth Center
Sun 08:28:06 PM 32.4322 -93.2342 265° West 366 421 34,000  Level Fort Worth Center
Sun 08:29:06 PM 32.4214 -93.3553 264° West 371 427 34,000  Level Fort Worth Center
Sun 08:30:06 PM 32.4108 -93.4764 264° West 371 427 34,000  Level Fort Worth Center
Sun 08:31:06 PM 32.4039 -93.5922 266° West 371 427 34,000  Level Fort Worth Center
Sun 08:32:06 PM 32.4114 -93.7100 274° West 371 427 34,000  Level Fort Worth Center
Sun 08:33:06 PM 32.4394 -93.8122 288° West 357 411 34,000 50 Level Fort Worth Center
Sun 08:34:06 PM 32.4572 -93.9247 281° West 357 411 34,100  Climbing Fort Worth Center
Sun 08:35:06 PM 32.4458 -94.0433 264° West 357 411 34,000 -50 Descending Fort Worth Center
Sun 08:36:06 PM 32.4408 -94.1667 267° West 367 422 34,000  Level Fort Worth Center
Sun 08:37:06 PM 32.4356 -94.2825 267° West 367 422 34,000  Level Fort Worth Center
Sun 08:38:06 PM 32.4300 -94.4008 267° West 367 422 34,000  Level Fort Worth Center
Sun 08:39:06 PM 32.4244 -94.5217 267° West 367 422 34,000  Level Fort Worth Center
Sun 08:40:06 PM 32.4208 -94.6422 268° West 367 422 34,000  Level Fort Worth Center
Sun 08:41:06 PM 32.4131 -94.7581 265° West 367 422 34,000 -950 Level Fort Worth Center
Sun 08:42:06 PM 32.3967 -94.8792 261° West 373 429 32,100 -1,700 Descending Fort Worth Center
Sun 08:43:06 PM 32.3886 -95.0050 266° West 378 435 30,600 -1,350 Descending Fort Worth Center
Sun 08:44:06 PM 32.3869 -95.1303 269° West 384 442 29,400 -1,400 Descending Fort Worth Center
Sun 08:45:06 PM 32.3850 -95.2681 269° West 384 442 27,800 -1,850 Descending Fort Worth Center
Sun 08:46:06 PM 32.3831 -95.3986 269° West 390 449 25,700 -1,350 Descending Fort Worth Center
Sun 08:47:06 PM 32.3853 -95.5339 271° West 403 464 25,100 -650 Descending Fort Worth Center
Sun 08:48:06 PM 32.3869 -95.6642 271° West 403 464 24,400 -550 Descending Fort Worth Center
Sun 08:49:06 PM 32.3889 -95.7969 271° West 403 464 24,000 -550 Descending Fort Worth Center
Sun 08:50:06 PM 32.3858 -95.9028 268° West 403 464 23,300 -1,500 Descending Fort Worth Center
Sun 08:51:06 PM 32.3878 -96.0553 271° West 403 464 21,000 -2,050 Descending Fort Worth Center
Sun 08:52:06 PM 32.3867 -96.1711 269° West 398 458 19,200 -1,950 Descending Fort Worth Center
Sun 08:53:06 PM 32.3861 -96.3089 270° West 398 458 17,100 -2,450 Descending Fort Worth Center
Sun 08:54:06 PM 32.3869 -96.4144 271° West 375 432 14,300 -3,000 Descending Fort Worth Center
Sun 08:55:06 PM 32.4397 -96.5172 301° West 333 383 11,100 -1,650 Descending Fort Worth Center
Sun 08:56:06 PM 32.4986 -96.5883 314° West 328 377 11,000 -50 Descending Fort Worth Center
Sun 08:57:06 PM 32.5597 -96.6642 314° West 309 356 11,000  Level Fort Worth Center
Sun 08:58:06 PM 32.6122 -96.7253 316° Northwest 297 342 11,000  Level Fort Worth Center
Sun 08:59:06 PM 32.6711 -96.7989 314° West 287 330 11,000 -50 Level Fort Worth Center
Sun 09:00:06 PM 32.7214 -96.8553 317° Northwest 287 330 10,900 -188 Descending Fort Worth Center
Sun 09:01:14 PM 32.7833 -96.9000 329° Northwest 251 289 10,600 -934 Descending Dallas / Fort Worth TRACON
Sun 09:02:08 PM 32.8500 -96.9000 360° North 240 276 9,000 -1,884 Descending Dallas / Fort Worth TRACON
Sun 09:03:15 PM 32.9167 -96.9000 360° North 243 280 6,800 -1,843 Descending Dallas / Fort Worth TRACON
Sun 09:04:15 PM 33.0000 -96.9000 360° North 242 278 5,100 -1,150 Descending Dallas / Fort Worth TRACON
Sun 09:05:15 PM 33.0667 -96.9167 348° North 241 277 4,500 -600 Descending Dallas / Fort Worth TRACON

Login

Don't have an account? Register now (free) for customized features, flight alerts, and more!